sensor_id;sensor_type;location;lat;lon;timestamp;pressure;altitude;pressure_sealevel;temperature;humidity
15263;BME280;7733;51.554;13.590;2023-03-12T00:00:49;100101.59;;;1.51;89.17
15263;BME280;7733;51.554;13.590;2023-03-12T00:03:16;100094.41;;;1.35;89.80
15263;BME280;7733;51.554;13.590;2023-03-12T00:05:43;100105.97;;;1.53;87.59
15263;BME280;7733;51.554;13.590;2023-03-12T00:08:11;100097.06;;;1.39;88.66
15263;BME280;7733;51.554;13.590;2023-03-12T00:10:39;100103.69;;;1.22;88.83
15263;BME280;7733;51.554;13.590;2023-03-12T00:13:06;100095.63;;;1.53;88.71
15263;BME280;7733;51.554;13.590;2023-03-12T00:15:36;100103.84;;;1.33;88.65
15263;BME280;7733;51.554;13.590;2023-03-12T00:18:02;100117.31;;;1.16;89.75
15263;BME280;7733;51.554;13.590;2023-03-12T00:20:28;100118.38;;;1.26;89.04
15263;BME280;7733;51.554;13.590;2023-03-12T00:22:54;100109.81;;;1.29;89.15
15263;BME280;7733;51.554;13.590;2023-03-12T00:25:20;100114.00;;;1.22;89.56
15263;BME280;7733;51.554;13.590;2023-03-12T00:27:46;100119.03;;;1.16;89.37
15263;BME280;7733;51.554;13.590;2023-03-12T00:30:12;100110.59;;;1.23;89.45
15263;BME280;7733;51.554;13.590;2023-03-12T00:32:37;100119.25;;;1.27;88.35
15263;BME280;7733;51.554;13.590;2023-03-12T00:35:05;100110.97;;;1.44;88.42
15263;BME280;7733;51.554;13.590;2023-03-12T00:37:31;100109.94;;;1.36;88.48
15263;BME280;7733;51.554;13.590;2023-03-12T00:39:58;100106.44;;;1.33;88.07
15263;BME280;7733;51.554;13.590;2023-03-12T00:42:26;100106.38;;;1.28;88.48
15263;BME280;7733;51.554;13.590;2023-03-12T00:44:52;100109.19;;;1.40;87.50
15263;BME280;7733;51.554;13.590;2023-03-12T00:47:18;100101.53;;;1.46;88.60
15263;BME280;7733;51.554;13.590;2023-03-12T00:49:43;100105.19;;;1.12;89.37
15263;BME280;7733;51.554;13.590;2023-03-12T00:52:09;100107.53;;;1.45;88.75
15263;BME280;7733;51.554;13.590;2023-03-12T00:54:35;100100.47;;;1.35;87.96
15263;BME280;7733;51.554;13.590;2023-03-12T00:57:01;100109.28;;;1.46;88.46
15263;BME280;7733;51.554;13.590;2023-03-12T00:59:26;100109.72;;;1.23;88.31
15263;BME280;7733;51.554;13.590;2023-03-12T01:01:52;100112.44;;;1.32;88.41
15263;BME280;7733;51.554;13.590;2023-03-12T01:04:18;100116.09;;;1.41;87.65
15263;BME280;7733;51.554;13.590;2023-03-12T01:06:44;100110.16;;;1.47;87.48
15263;BME280;7733;51.554;13.590;2023-03-12T01:09:10;100117.38;;;1.65;86.98
15263;BME280;7733;51.554;13.590;2023-03-12T01:11:37;100114.34;;;1.40;88.76
15263;BME280;7733;51.554;13.590;2023-03-12T01:14:06;100118.25;;;1.20;88.51
15263;BME280;7733;51.554;13.590;2023-03-12T01:16:33;100114.97;;;1.27;88.37
15263;BME280;7733;51.554;13.590;2023-03-12T01:19:02;100114.56;;;1.52;87.12
15263;BME280;7733;51.554;13.590;2023-03-12T01:21:29;100113.56;;;1.44;86.95
15263;BME280;7733;51.554;13.590;2023-03-12T01:23:56;100113.56;;;1.44;87.23
15263;BME280;7733;51.554;13.590;2023-03-12T01:26:22;100115.31;;;1.47;87.18
15263;BME280;7733;51.554;13.590;2023-03-12T01:28:49;100114.28;;;1.37;87.73
15263;BME280;7733;51.554;13.590;2023-03-12T01:31:17;100122.50;;;1.63;86.65
15263;BME280;7733;51.554;13.590;2023-03-12T01:33:47;100116.28;;;1.53;86.58
15263;BME280;7733;51.554;13.590;2023-03-12T01:36:24;100123.72;;;1.35;87.17
15263;BME280;7733;51.554;13.590;2023-03-12T01:38:53;100121.38;;;1.49;86.22
15263;BME280;7733;51.554;13.590;2023-03-12T01:41:20;100124.22;;;1.61;86.12
15263;BME280;7733;51.554;13.590;2023-03-12T01:43:46;100118.16;;;1.15;87.30
15263;BME280;7733;51.554;13.590;2023-03-12T01:46:29;100125.13;;;1.65;87.05
15263;BME280;7733;51.554;13.590;2023-03-12T01:51:57;100110.69;;;1.29;87.10
15263;BME280;7733;51.554;13.590;2023-03-12T01:54:32;100116.81;;;1.34;86.14
15263;BME280;7733;51.554;13.590;2023-03-12T01:57:01;100107.66;;;1.51;85.82
15263;BME280;7733;51.554;13.590;2023-03-12T01:59:37;100115.28;;;1.44;85.96
15263;BME280;7733;51.554;13.590;2023-03-12T02:02:05;100117.97;;;1.51;86.79
15263;BME280;7733;51.554;13.590;2023-03-12T02:04:33;100111.56;;;1.79;85.08
15263;BME280;7733;51.554;13.590;2023-03-12T02:07:08;100112.63;;;1.41;86.24
15263;BME280;7733;51.554;13.590;2023-03-12T02:09:45;100112.53;;;1.36;86.96
15263;BME280;7733;51.554;13.590;2023-03-12T02:12:12;100116.25;;;1.50;86.59
15263;BME280;7733;51.554;13.590;2023-03-12T02:14:38;100118.97;;;1.60;86.24
15263;BME280;7733;51.554;13.590;2023-03-12T02:17:05;100112.75;;;1.47;85.89
15263;BME280;7733;51.554;13.590;2023-03-12T02:19:50;100130.47;;;1.29;86.62
15263;BME280;7733;51.554;13.590;2023-03-12T02:22:21;100118.97;;;1.60;85.53
15263;BME280;7733;51.554;13.590;2023-03-12T02:25:01;100127.09;;;1.31;85.95
15263;BME280;7733;51.554;13.590;2023-03-12T02:27:35;100124.69;;;1.40;86.38
15263;BME280;7733;51.554;13.590;2023-03-12T02:30:03;100131.66;;;1.44;85.49
15263;BME280;7733;51.554;13.590;2023-03-12T02:32:37;100132.28;;;1.33;85.72
15263;BME280;7733;51.554;13.590;2023-03-12T02:35:05;100130.66;;;1.39;86.41
15263;BME280;7733;51.554;13.590;2023-03-12T02:37:31;100134.28;;;1.47;85.60
15263;BME280;7733;51.554;13.590;2023-03-12T02:40:17;100137.41;;;1.31;86.17
15263;BME280;7733;51.554;13.590;2023-03-12T02:42:46;100145.75;;;1.18;87.03
15263;BME280;7733;51.554;13.590;2023-03-12T02:45:12;100134.00;;;1.34;86.37
15263;BME280;7733;51.554;13.590;2023-03-12T02:47:38;100149.28;;;1.21;86.47
15263;BME280;7733;51.554;13.590;2023-03-12T02:50:04;100145.22;;;1.34;86.06
15263;BME280;7733;51.554;13.590;2023-03-12T02:52:30;100141.94;;;1.41;86.81
15263;BME280;7733;51.554;13.590;2023-03-12T02:55:00;100144.81;;;1.13;87.60
15263;BME280;7733;51.554;13.590;2023-03-12T02:57:26;100153.88;;;1.36;86.29
15263;BME280;7733;51.554;13.590;2023-03-12T02:59:52;100147.25;;;1.50;85.30
15263;BME280;7733;51.554;13.590;2023-03-12T03:02:17;100159.03;;;1.36;85.05
15263;BME280;7733;51.554;13.590;2023-03-12T03:04:43;100159.63;;;1.21;86.25
15263;BME280;7733;51.554;13.590;2023-03-12T03:07:09;100154.41;;;1.20;86.18
15263;BME280;7733;51.554;13.590;2023-03-12T03:09:35;100161.75;;;1.42;85.35
15263;BME280;7733;51.554;13.590;2023-03-12T03:12:01;100160.03;;;1.41;84.76
15263;BME280;7733;51.554;13.590;2023-03-12T03:14:26;100169.47;;;1.41;85.86
15263;BME280;7733;51.554;13.590;2023-03-12T03:16:52;100168.38;;;1.28;85.95
15263;BME280;7733;51.554;13.590;2023-03-12T03:19:18;100168.38;;;1.30;86.22
15263;BME280;7733;51.554;13.590;2023-03-12T03:21:43;100168.63;;;1.42;85.63
15263;BME280;7733;51.554;13.590;2023-03-12T03:24:09;100169.38;;;1.36;85.24
15263;BME280;7733;51.554;13.590;2023-03-12T03:26:35;100176.56;;;1.52;85.58
15263;BME280;7733;51.554;13.590;2023-03-12T03:29:01;100174.31;;;1.24;85.37
15263;BME280;7733;51.554;13.590;2023-03-12T03:31:27;100177.06;;;1.33;85.67
15263;BME280;7733;51.554;13.590;2023-03-12T03:33:53;100174.44;;;1.30;85.52
15263;BME280;7733;51.554;13.590;2023-03-12T03:36:19;100169.66;;;1.08;86.56
15263;BME280;7733;51.554;13.590;2023-03-12T03:38:45;100181.78;;;1.10;86.38
15263;BME280;7733;51.554;13.590;2023-03-12T03:41:16;100174.06;;;1.12;87.08
15263;BME280;7733;51.554;13.590;2023-03-12T03:43:42;100182.59;;;1.08;87.22
15263;BME280;7733;51.554;13.590;2023-03-12T03:46:11;100192.16;;;1.13;86.59
15263;BME280;7733;51.554;13.590;2023-03-12T03:48:38;100189.88;;;1.27;85.60
15263;BME280;7733;51.554;13.590;2023-03-12T03:51:06;100188.06;;;1.23;86.16
15263;BME280;7733;51.554;13.590;2023-03-12T03:53:33;100191.09;;;1.44;86.07
15263;BME280;7733;51.554;13.590;2023-03-12T03:56:12;100194.94;;;1.23;85.63
15263;BME280;7733;51.554;13.590;2023-03-12T03:58:38;100203.97;;;1.43;85.35
15263;BME280;7733;51.554;13.590;2023-03-12T04:01:04;100202.91;;;1.33;85.89
15263;BME280;7733;51.554;13.590;2023-03-12T04:03:32;100205.06;;;1.13;86.38
15263;BME280;7733;51.554;13.590;2023-03-12T04:06:01;100210.28;;;1.15;86.11
15263;BME280;7733;51.554;13.590;2023-03-12T04:08:27;100213.19;;;1.30;86.05
15263;BME280;7733;51.554;13.590;2023-03-12T04:10:54;100210.44;;;1.66;84.26
15263;BME280;7733;51.554;13.590;2023-03-12T04:13:20;100214.53;;;1.55;84.58
15263;BME280;7733;51.554;13.590;2023-03-12T04:15:52;100210.41;;;1.21;85.37
15263;BME280;7733;51.554;13.590;2023-03-12T04:18:18;100211.72;;;1.43;85.36
15263;BME280;7733;51.554;13.590;2023-03-12T04:20:45;100206.25;;;1.28;85.37
15263;BME280;7733;51.554;13.590;2023-03-12T04:23:10;100209.97;;;1.40;85.67
15263;BME280;7733;51.554;13.590;2023-03-12T04:25:37;100213.31;;;1.38;85.67
15263;BME280;7733;51.554;13.590;2023-03-12T04:28:04;100216.03;;;1.42;85.37
15263;BME280;7733;51.554;13.590;2023-03-12T04:30:30;100211.44;;;1.29;85.52
15263;BME280;7733;51.554;13.590;2023-03-12T04:32:56;100220.59;;;1.15;85.47
15263;BME280;7733;51.554;13.590;2023-03-12T04:35:22;100218.22;;;1.24;85.56
15263;BME280;7733;51.554;13.590;2023-03-12T04:37:50;100217.44;;;0.87;87.21
15263;BME280;7733;51.554;13.590;2023-03-12T04:40:16;100213.28;;;1.36;85.24
15263;BME280;7733;51.554;13.590;2023-03-12T04:42:44;100221.72;;;0.87;86.63
15263;BME280;7733;51.554;13.590;2023-03-12T04:45:10;100222.84;;;1.00;86.48
15263;BME280;7733;51.554;13.590;2023-03-12T04:47:36;100224.44;;;0.93;87.38
15263;BME280;7733;51.554;13.590;2023-03-12T04:50:02;100227.41;;;1.11;86.67
15263;BME280;7733;51.554;13.590;2023-03-12T04:52:28;100237.91;;;1.19;86.34
15263;BME280;7733;51.554;13.590;2023-03-12T04:54:54;100226.16;;;1.33;85.50
15263;BME280;7733;51.554;13.590;2023-03-12T04:57:20;100230.88;;;1.12;86.04
15263;BME280;7733;51.554;13.590;2023-03-12T04:59:46;100232.72;;;1.19;86.80
15263;BME280;7733;51.554;13.590;2023-03-12T05:02:12;100232.22;;;0.95;86.70
15263;BME280;7733;51.554;13.590;2023-03-12T05:04:38;100231.31;;;0.93;87.08
15263;BME280;7733;51.554;13.590;2023-03-12T05:07:04;100233.00;;;0.90;87.79
15263;BME280;7733;51.554;13.590;2023-03-12T05:09:29;100235.53;;;0.89;87.63
15263;BME280;7733;51.554;13.590;2023-03-12T05:11:55;100231.88;;;0.79;87.71
15263;BME280;7733;51.554;13.590;2023-03-12T05:14:21;100230.00;;;0.72;87.65
15263;BME280;7733;51.554;13.590;2023-03-12T05:16:47;100233.53;;;0.77;87.42
15263;BME280;7733;51.554;13.590;2023-03-12T05:19:13;100232.66;;;0.77;87.98
15263;BME280;7733;51.554;13.590;2023-03-12T05:21:40;100226.44;;;0.67;87.96
15263;BME280;7733;51.554;13.590;2023-03-12T05:24:10;100226.22;;;0.58;88.31
15263;BME280;7733;51.554;13.590;2023-03-12T05:26:37;100221.34;;;0.70;87.67
15263;BME280;7733;51.554;13.590;2023-03-12T05:29:04;100229.22;;;0.76;87.27
15263;BME280;7733;51.554;13.590;2023-03-12T05:31:31;100234.41;;;0.78;87.58
15263;BME280;7733;51.554;13.590;2023-03-12T05:34:03;100231.59;;;0.67;87.88
15263;BME280;7733;51.554;13.590;2023-03-12T05:36:29;100236.81;;;0.70;87.95
15263;BME280;7733;51.554;13.590;2023-03-12T05:38:55;100242.31;;;0.84;87.56
15263;BME280;7733;51.554;13.590;2023-03-12T05:41:25;100239.19;;;0.99;86.25
15263;BME280;7733;51.554;13.590;2023-03-12T05:43:53;100238.84;;;0.82;87.44
15263;BME280;7733;51.554;13.590;2023-03-12T05:46:21;100237.91;;;0.80;87.59
15263;BME280;7733;51.554;13.590;2023-03-12T05:48:47;100237.78;;;0.74;87.46
15263;BME280;7733;51.554;13.590;2023-03-12T05:51:13;100250.22;;;0.91;86.83
15263;BME280;7733;51.554;13.590;2023-03-12T05:53:39;100245.09;;;0.93;87.34
15263;BME280;7733;51.554;13.590;2023-03-12T05:56:12;100237.88;;;0.78;87.28
15263;BME280;7733;51.554;13.590;2023-03-12T05:58:39;100238.69;;;0.77;87.40
15263;BME280;7733;51.554;13.590;2023-03-12T06:01:19;100240.38;;;0.75;86.68
15263;BME280;7733;51.554;13.590;2023-03-12T06:03:45;100241.53;;;0.88;87.13
15263;BME280;7733;51.554;13.590;2023-03-12T06:06:12;100239.34;;;1.05;86.59
15263;BME280;7733;51.554;13.590;2023-03-12T06:08:39;100245.50;;;0.74;86.79
15263;BME280;7733;51.554;13.590;2023-03-12T06:11:05;100245.03;;;0.90;86.69
15263;BME280;7733;51.554;13.590;2023-03-12T06:13:31;100241.59;;;0.91;87.11
15263;BME280;7733;51.554;13.590;2023-03-12T06:16:07;100237.13;;;0.82;86.94
15263;BME280;7733;51.554;13.590;2023-03-12T06:18:34;100231.38;;;0.96;87.77
15263;BME280;7733;51.554;13.590;2023-03-12T06:21:10;100241.16;;;1.09;86.94
15263;BME280;7733;51.554;13.590;2023-03-12T06:23:37;100240.00;;;0.96;87.28
15263;BME280;7733;51.554;13.590;2023-03-12T06:26:03;100248.13;;;1.13;87.07
15263;BME280;7733;51.554;13.590;2023-03-12T06:28:29;100236.31;;;0.85;86.88
15263;BME280;7733;51.554;13.590;2023-03-12T06:30:55;100244.81;;;1.20;86.79
15263;BME280;7733;51.554;13.590;2023-03-12T06:33:21;100242.59;;;0.98;86.01
15263;BME280;7733;51.554;13.590;2023-03-12T06:35:47;100240.13;;;1.01;86.32
15263;BME280;7733;51.554;13.590;2023-03-12T06:38:13;100243.16;;;1.22;86.14
15263;BME280;7733;51.554;13.590;2023-03-12T06:40:38;100249.50;;;0.99;86.68
15263;BME280;7733;51.554;13.590;2023-03-12T06:43:04;100241.41;;;1.21;85.44
15263;BME280;7733;51.554;13.590;2023-03-12T06:45:36;100243.00;;;1.16;85.62
15263;BME280;7733;51.554;13.590;2023-03-12T06:48:03;100246.88;;;1.36;84.89
15263;BME280;7733;51.554;13.590;2023-03-12T06:50:28;100247.53;;;1.26;84.44
15263;BME280;7733;51.554;13.590;2023-03-12T06:52:54;100248.19;;;1.58;84.59
15263;BME280;7733;51.554;13.590;2023-03-12T06:55:20;100248.81;;;1.46;84.16
15263;BME280;7733;51.554;13.590;2023-03-12T06:57:45;100251.56;;;1.54;82.92
15263;BME280;7733;51.554;13.590;2023-03-12T07:00:12;100245.81;;;1.69;83.07
15263;BME280;7733;51.554;13.590;2023-03-12T07:02:38;100253.72;;;1.76;83.66
15263;BME280;7733;51.554;13.590;2023-03-12T07:05:04;100257.75;;;1.61;82.22
15263;BME280;7733;51.554;13.590;2023-03-12T07:07:30;100261.09;;;1.58;83.09
15263;BME280;7733;51.554;13.590;2023-03-12T07:09:55;100268.00;;;1.59;82.65
15263;BME280;7733;51.554;13.590;2023-03-12T07:12:21;100262.66;;;1.94;82.29
15263;BME280;7733;51.554;13.590;2023-03-12T07:14:47;100257.22;;;2.25;81.20
15263;BME280;7733;51.554;13.590;2023-03-12T07:17:12;100259.63;;;2.16;81.44
15263;BME280;7733;51.554;13.590;2023-03-12T07:19:38;100267.03;;;1.96;81.46
15263;BME280;7733;51.554;13.590;2023-03-12T07:22:04;100268.19;;;2.12;81.36
15263;BME280;7733;51.554;13.590;2023-03-12T07:24:30;100268.38;;;2.21;81.13
15263;BME280;7733;51.554;13.590;2023-03-12T07:26:55;100268.13;;;2.09;80.70
15263;BME280;7733;51.554;13.590;2023-03-12T07:29:21;100268.50;;;2.30;80.27
15263;BME280;7733;51.554;13.590;2023-03-12T07:31:47;100262.03;;;2.57;79.26
15263;BME280;7733;51.554;13.590;2023-03-12T07:34:13;100263.81;;;2.59;79.28
15263;BME280;7733;51.554;13.590;2023-03-12T07:36:38;100266.38;;;2.59;79.77
15263;BME280;7733;51.554;13.590;2023-03-12T07:39:04;100275.66;;;2.45;79.63
15263;BME280;7733;51.554;13.590;2023-03-12T07:41:30;100277.41;;;2.46;79.40
15263;BME280;7733;51.554;13.590;2023-03-12T07:43:56;100272.13;;;2.96;78.97
15263;BME280;7733;51.554;13.590;2023-03-12T07:46:22;100268.84;;;3.06;78.09
15263;BME280;7733;51.554;13.590;2023-03-12T07:48:47;100268.69;;;2.97;78.28
15263;BME280;7733;51.554;13.590;2023-03-12T07:51:13;100272.44;;;3.17;78.00
15263;BME280;7733;51.554;13.590;2023-03-12T07:53:39;100275.66;;;2.99;78.51
15263;BME280;7733;51.554;13.590;2023-03-12T07:56:05;100271.31;;;2.98;78.17
15263;BME280;7733;51.554;13.590;2023-03-12T07:58:31;100272.41;;;3.14;77.51
15263;BME280;7733;51.554;13.590;2023-03-12T08:00:58;100269.22;;;3.33;78.24
15263;BME280;7733;51.554;13.590;2023-03-12T08:03:23;100266.25;;;3.74;75.69
15263;BME280;7733;51.554;13.590;2023-03-12T08:05:58;100258.25;;;3.56;77.29
15263;BME280;7733;51.554;13.590;2023-03-12T08:08:26;100261.34;;;3.98;75.76
15263;BME280;7733;51.554;13.590;2023-03-12T08:10:53;100262.19;;;3.97;76.04
15263;BME280;7733;51.554;13.590;2023-03-12T08:13:19;100261.41;;;4.03;75.62
15263;BME280;7733;51.554;13.590;2023-03-12T08:15:45;100267.50;;;4.08;76.11
15263;BME280;7733;51.554;13.590;2023-03-12T08:18:11;100264.31;;;4.35;74.13
15263;BME280;7733;51.554;13.590;2023-03-12T08:20:36;100259.91;;;4.25;74.34
15263;BME280;7733;51.554;13.590;2023-03-12T08:23:02;100266.13;;;4.44;73.98
15263;BME280;7733;51.554;13.590;2023-03-12T08:25:28;100259.81;;;4.19;73.81
15263;BME280;7733;51.554;13.590;2023-03-12T08:27:54;100253.81;;;4.21;73.42
15263;BME280;7733;51.554;13.590;2023-03-12T08:30:20;100261.72;;;4.35;73.42
15263;BME280;7733;51.554;13.590;2023-03-12T08:32:46;100258.06;;;4.15;72.75
15263;BME280;7733;51.554;13.590;2023-03-12T08:35:11;100251.28;;;4.29;72.77
15263;BME280;7733;51.554;13.590;2023-03-12T08:37:37;100246.97;;;4.31;73.48
15263;BME280;7733;51.554;13.590;2023-03-12T08:40:03;100251.44;;;4.46;71.51
15263;BME280;7733;51.554;13.590;2023-03-12T08:42:39;100254.19;;;4.66;71.39
15263;BME280;7733;51.554;13.590;2023-03-12T08:45:05;100252.44;;;4.65;72.52
15263;BME280;7733;51.554;13.590;2023-03-12T08:47:31;100254.91;;;4.48;72.83
15263;BME280;7733;51.554;13.590;2023-03-12T08:49:57;100257.69;;;4.72;72.24
15263;BME280;7733;51.554;13.590;2023-03-12T08:52:23;100248.03;;;4.57;72.86
15263;BME280;7733;51.554;13.590;2023-03-12T08:54:49;100251.75;;;4.90;72.01
15263;BME280;7733;51.554;13.590;2023-03-12T08:57:14;100249.16;;;4.93;71.91
15263;BME280;7733;51.554;13.590;2023-03-12T08:59:40;100246.41;;;4.69;71.90
15263;BME280;7733;51.554;13.590;2023-03-12T09:02:06;100243.94;;;4.82;71.71
15263;BME280;7733;51.554;13.590;2023-03-12T09:04:32;100249.16;;;4.88;71.62
15263;BME280;7733;51.554;13.590;2023-03-12T09:07:00;100243.97;;;4.93;71.95
15263;BME280;7733;51.554;13.590;2023-03-12T09:09:25;100238.84;;;5.01;72.37
15263;BME280;7733;51.554;13.590;2023-03-12T09:11:51;100242.22;;;4.87;72.51
15263;BME280;7733;51.554;13.590;2023-03-12T09:14:17;100242.25;;;4.97;70.35
15263;BME280;7733;51.554;13.590;2023-03-12T09:16:42;100240.59;;;5.03;69.84
15263;BME280;7733;51.554;13.590;2023-03-12T09:19:08;100238.13;;;5.28;70.45
15263;BME280;7733;51.554;13.590;2023-03-12T09:21:34;100235.59;;;5.46;69.85
15263;BME280;7733;51.554;13.590;2023-03-12T09:24:00;100240.91;;;5.76;69.00
15263;BME280;7733;51.554;13.590;2023-03-12T09:26:25;100240.00;;;5.64;68.31
15263;BME280;7733;51.554;13.590;2023-03-12T09:28:51;100226.28;;;6.04;68.30
15263;BME280;7733;51.554;13.590;2023-03-12T09:31:17;100234.09;;;6.10;67.53
15263;BME280;7733;51.554;13.590;2023-03-12T09:33:43;100220.09;;;5.73;65.79
15263;BME280;7733;51.554;13.590;2023-03-12T09:36:09;100221.81;;;5.80;65.92
15263;BME280;7733;51.554;13.590;2023-03-12T09:38:34;100230.63;;;6.12;65.97
15263;BME280;7733;51.554;13.590;2023-03-12T09:41:05;100227.13;;;6.19;66.44
15263;BME280;7733;51.554;13.590;2023-03-12T09:43:36;100218.47;;;6.59;64.82
15263;BME280;7733;51.554;13.590;2023-03-12T09:46:10;100222.81;;;6.57;62.61
15263;BME280;7733;51.554;13.590;2023-03-12T09:48:38;100221.09;;;6.49;61.69
15263;BME280;7733;51.554;13.590;2023-03-12T09:51:24;100219.34;;;6.70;62.21
15263;BME280;7733;51.554;13.590;2023-03-12T09:53:57;100220.97;;;7.16;61.95
15263;BME280;7733;51.554;13.590;2023-03-12T09:56:25;100221.03;;;6.91;63.24
15263;BME280;7733;51.554;13.590;2023-03-12T09:58:51;100211.47;;;7.07;62.03
15263;BME280;7733;51.554;13.590;2023-03-12T10:01:46;100206.25;;;7.07;59.63
15263;BME280;7733;51.554;13.590;2023-03-12T10:04:45;100214.97;;;6.89;58.72
15263;BME280;7733;51.554;13.590;2023-03-12T10:10:21;100211.31;;;7.41;55.07
15263;BME280;7733;51.554;13.590;2023-03-12T10:26:39;100203.63;;;6.96;51.85
15263;BME280;7733;51.554;13.590;2023-03-12T10:29:23;100198.28;;;7.45;54.62
15263;BME280;7733;51.554;13.590;2023-03-12T10:32:04;100191.31;;;7.44;52.62
15263;BME280;7733;51.554;13.590;2023-03-12T10:34:59;100190.38;;;7.59;53.61
15263;BME280;7733;51.554;13.590;2023-03-12T10:37:35;100187.81;;;7.51;51.77
15263;BME280;7733;51.554;13.590;2023-03-12T10:40:04;100188.72;;;7.44;51.66
15263;BME280;7733;51.554;13.590;2023-03-12T10:42:31;100179.94;;;7.56;53.48
15263;BME280;7733;51.554;13.590;2023-03-12T10:47:41;100175.44;;;7.87;51.92
15263;BME280;7733;51.554;13.590;2023-03-12T10:50:25;100170.38;;;7.53;53.62
15263;BME280;7733;51.554;13.590;2023-03-12T10:53:11;100167.78;;;7.55;54.16
15263;BME280;7733;51.554;13.590;2023-03-12T10:55:38;100165.09;;;7.69;54.51
15263;BME280;7733;51.554;13.590;2023-03-12T10:58:04;100158.06;;;7.77;55.21
15263;BME280;7733;51.554;13.590;2023-03-12T11:00:31;100170.06;;;8.07;53.76
15263;BME280;7733;51.554;13.590;2023-03-12T11:03:16;100169.31;;;7.88;53.31
15263;BME280;7733;51.554;13.590;2023-03-12T11:05:51;100176.78;;;8.43;52.42
15263;BME280;7733;51.554;13.590;2023-03-12T11:08:33;100164.97;;;8.91;50.88
15263;BME280;7733;51.554;13.590;2023-03-12T11:11:01;100171.53;;;8.46;51.85
15263;BME280;7733;51.554;13.590;2023-03-12T11:16:25;100161.53;;;7.80;49.75
15263;BME280;7733;51.554;13.590;2023-03-12T11:19:01;100153.84;;;8.71;50.99
15263;BME280;7733;51.554;13.590;2023-03-12T11:21:31;100165.19;;;8.70;49.09
15263;BME280;7733;51.554;13.590;2023-03-12T11:26:46;100144.28;;;8.68;48.73
15263;BME280;7733;51.554;13.590;2023-03-12T11:29:42;100149.91;;;8.19;48.44
15263;BME280;7733;51.554;13.590;2023-03-12T11:32:36;100147.47;;;8.01;49.26
15263;BME280;7733;51.554;13.590;2023-03-12T11:35:10;100136.28;;;7.84;47.72
15263;BME280;7733;51.554;13.590;2023-03-12T11:46:34;100093.78;;;8.66;45.93
15263;BME280;7733;51.554;13.590;2023-03-12T12:00:14;100095.50;;;7.66;46.60
15263;BME280;7733;51.554;13.590;2023-03-12T12:03:21;100076.72;;;8.27;45.63
15263;BME280;7733;51.554;13.590;2023-03-12T12:06:10;100068.41;;;7.84;46.66
15263;BME280;7733;51.554;13.590;2023-03-12T12:14:58;100051.63;;;8.09;49.66
15263;BME280;7733;51.554;13.590;2023-03-12T12:17:57;100047.00;;;8.37;46.94
15263;BME280;7733;51.554;13.590;2023-03-12T12:20:45;100040.28;;;8.12;46.26
15263;BME280;7733;51.554;13.590;2023-03-12T12:23:26;100041.69;;;8.48;48.19
15263;BME280;7733;51.554;13.590;2023-03-12T12:26:09;100040.34;;;8.06;46.90
15263;BME280;7733;51.554;13.590;2023-03-12T12:28:59;100049.84;;;8.14;47.66
15263;BME280;7733;51.554;13.590;2023-03-12T12:31:53;100041.44;;;7.83;47.06
15263;BME280;7733;51.554;13.590;2023-03-12T12:40:02;100033.78;;;7.56;46.52
15263;BME280;7733;51.554;13.590;2023-03-12T12:42:48;100031.88;;;7.81;46.01
15263;BME280;7733;51.554;13.590;2023-03-12T12:45:18;100031.06;;;7.73;46.61
15263;BME280;7733;51.554;13.590;2023-03-12T12:47:56;100029.41;;;7.62;47.21
15263;BME280;7733;51.554;13.590;2023-03-12T12:50:29;100027.81;;;7.40;48.62
15263;BME280;7733;51.554;13.590;2023-03-12T12:55:51;100027.63;;;7.66;48.74
15263;BME280;7733;51.554;13.590;2023-03-12T13:00:59;100019.69;;;7.77;48.15
15263;BME280;7733;51.554;13.590;2023-03-12T13:03:26;100009.72;;;8.18;49.03
15263;BME280;7733;51.554;13.590;2023-03-12T13:06:00;100008.06;;;8.11;49.93
15263;BME280;7733;51.554;13.590;2023-03-12T13:08:59;100006.09;;;7.38;49.94
15263;BME280;7733;51.554;13.590;2023-03-12T13:11:39;100009.56;;;7.39;49.76
15263;BME280;7733;51.554;13.590;2023-03-12T13:17:07;99998.81;;;7.78;50.24
15263;BME280;7733;51.554;13.590;2023-03-12T13:19:39;100005.19;;;7.44;50.79
15263;BME280;7733;51.554;13.590;2023-03-12T13:22:25;100002.41;;;7.65;51.47
15263;BME280;7733;51.554;13.590;2023-03-12T13:28:28;99998.97;;;7.60;52.06
15263;BME280;7733;51.554;13.590;2023-03-12T13:30:58;99997.22;;;7.59;51.97
15263;BME280;7733;51.554;13.590;2023-03-12T13:33:44;99983.19;;;7.75;50.95
15263;BME280;7733;51.554;13.590;2023-03-12T13:50:04;99958.59;;;7.96;51.50
15263;BME280;7733;51.554;13.590;2023-03-12T13:52:40;99949.69;;;8.15;51.22
15263;BME280;7733;51.554;13.590;2023-03-12T13:55:24;99946.16;;;8.21;51.73
15263;BME280;7733;51.554;13.590;2023-03-12T14:00:35;99933.31;;;8.01;50.27
15263;BME280;7733;51.554;13.590;2023-03-12T14:03:21;99926.69;;;7.70;50.25
15263;BME280;7733;51.554;13.590;2023-03-12T14:05:57;99932.75;;;7.72;49.70
15263;BME280;7733;51.554;13.590;2023-03-12T14:16:56;99933.72;;;7.58;50.35
15263;BME280;7733;51.554;13.590;2023-03-12T14:19:28;99916.88;;;7.91;50.52
15263;BME280;7733;51.554;13.590;2023-03-12T14:21:59;99909.03;;;7.93;49.96
15263;BME280;7733;51.554;13.590;2023-03-12T14:24:54;99915.84;;;8.06;51.36
15263;BME280;7733;51.554;13.590;2023-03-12T14:27:31;99915.75;;;8.14;51.72
15263;BME280;7733;51.554;13.590;2023-03-12T14:30:21;99907.25;;;7.95;50.56
15263;BME280;7733;51.554;13.590;2023-03-12T14:32:52;99912.84;;;8.40;50.74
15263;BME280;7733;51.554;13.590;2023-03-12T14:35:29;99910.72;;;7.97;51.08
15263;BME280;7733;51.554;13.590;2023-03-12T14:38:14;99905.50;;;7.97;50.96
15263;BME280;7733;51.554;13.590;2023-03-12T14:40:50;99894.59;;;8.37;50.79
15263;BME280;7733;51.554;13.590;2023-03-12T14:43:30;99894.31;;;7.86;51.41
15263;BME280;7733;51.554;13.590;2023-03-12T14:46:02;99900.09;;;8.12;51.87
15263;BME280;7733;51.554;13.590;2023-03-12T14:48:35;99888.53;;;8.32;50.87
15263;BME280;7733;51.554;13.590;2023-03-12T14:51:04;99893.91;;;8.19;51.63